sensor_id;sensor_type;location;lat;lon;timestamp;P1;durP1;ratioP1;P2;durP2;ratioP2
53052;SDS011;38934;52.690;6.184;2022-12-07T16:07:05;4.40;;;1.90;;
53052;SDS011;38934;52.690;6.184;2022-12-07T16:09:31;4.05;;;1.85;;
53052;SDS011;38934;52.690;6.184;2022-12-07T16:11:57;2.17;;;2.00;;
53052;SDS011;38934;52.690;6.184;2022-12-07T16:14:23;4.22;;;2.03;;
53052;SDS011;38934;52.690;6.184;2022-12-07T16:16:49;2.47;;;2.20;;
53052;SDS011;38934;52.690;6.184;2022-12-07T16:19:15;2.53;;;2.00;;
53052;SDS011;38934;52.690;6.184;2022-12-07T16:21:41;3.05;;;2.05;;
53052;SDS011;38934;52.690;6.184;2022-12-07T16:24:07;6.35;;;2.80;;
53052;SDS011;38934;52.690;6.184;2022-12-07T16:26:35;5.32;;;3.10;;
53052;SDS011;38934;52.690;6.184;2022-12-07T16:29:01;3.67;;;2.20;;
53052;SDS011;38934;52.690;6.184;2022-12-07T16:31:27;6.97;;;2.30;;
53052;SDS011;38934;52.690;6.184;2022-12-07T16:33:54;4.63;;;1.98;;
53052;SDS011;38934;52.690;6.184;2022-12-07T16:36:21;3.40;;;2.00;;
53052;SDS011;38934;52.690;6.184;2022-12-07T16:38:49;4.72;;;1.88;;
53052;SDS011;38934;52.690;6.184;2022-12-07T16:41:15;3.83;;;1.88;;
53052;SDS011;38934;52.690;6.184;2022-12-07T16:43:41;3.28;;;1.75;;
53052;SDS011;38934;52.690;6.184;2022-12-07T16:46:07;2.58;;;1.83;;
53052;SDS011;38934;52.690;6.184;2022-12-07T16:48:37;6.75;;;3.10;;
53052;SDS011;38934;52.690;6.184;2022-12-07T16:51:06;3.08;;;2.00;;
53052;SDS011;38934;52.690;6.184;2022-12-07T16:53:33;3.38;;;1.70;;
53052;SDS011;38934;52.690;6.184;2022-12-07T16:56:00;3.90;;;1.60;;
53052;SDS011;38934;52.690;6.184;2022-12-07T16:58:26;1.75;;;1.40;;
53052;SDS011;38934;52.690;6.184;2022-12-07T17:00:52;1.70;;;1.60;;
53052;SDS011;38934;52.690;6.184;2022-12-07T17:03:18;3.65;;;2.20;;
53052;SDS011;38934;52.690;6.184;2022-12-07T17:05:44;3.60;;;2.30;;
53052;SDS011;38934;52.690;6.184;2022-12-07T17:08:11;2.00;;;1.80;;
53052;SDS011;38934;52.690;6.184;2022-12-07T17:10:38;5.63;;;1.80;;
53052;SDS011;38934;52.690;6.184;2022-12-07T17:13:04;5.45;;;2.03;;
53052;SDS011;38934;52.690;6.184;2022-12-07T17:16:03;2.42;;;1.60;;
53052;SDS011;38934;52.690;6.184;2022-12-07T17:18:31;2.40;;;1.73;;
53052;SDS011;38934;52.690;6.184;2022-12-07T17:21:04;2.08;;;1.55;;
53052;SDS011;38934;52.690;6.184;2022-12-07T17:23:30;3.20;;;1.70;;
53052;SDS011;38934;52.690;6.184;2022-12-07T17:25:57;3.30;;;1.50;;
53052;SDS011;38934;52.690;6.184;2022-12-07T17:28:29;4.57;;;1.70;;
53052;SDS011;38934;52.690;6.184;2022-12-07T17:30:55;4.82;;;1.85;;
53052;SDS011;38934;52.690;6.184;2022-12-07T17:33:21;4.65;;;1.70;;
53052;SDS011;38934;52.690;6.184;2022-12-07T17:35:47;2.28;;;1.60;;
53052;SDS011;38934;52.690;6.184;2022-12-07T17:38:13;5.80;;;2.00;;
53052;SDS011;38934;52.690;6.184;2022-12-07T17:40:38;5.93;;;1.85;;
53052;SDS011;38934;52.690;6.184;2022-12-07T17:43:04;3.35;;;1.88;;
53052;SDS011;38934;52.690;6.184;2022-12-07T17:45:30;3.83;;;2.33;;
53052;SDS011;38934;52.690;6.184;2022-12-07T17:47:56;3.42;;;2.08;;
53052;SDS011;38934;52.690;6.184;2022-12-07T17:50:22;3.45;;;2.15;;
53052;SDS011;38934;52.690;6.184;2022-12-07T17:53:10;1.80;;;1.70;;
53052;SDS011;38934;52.690;6.184;2022-12-07T17:55:36;3.08;;;1.90;;
53052;SDS011;38934;52.690;6.184;2022-12-07T17:58:02;3.03;;;2.03;;
53052;SDS011;38934;52.690;6.184;2022-12-07T18:00:28;2.67;;;2.15;;
53052;SDS011;38934;52.690;6.184;2022-12-07T18:02:54;5.15;;;2.05;;
53052;SDS011;38934;52.690;6.184;2022-12-07T18:05:20;4.30;;;2.30;;
53052;SDS011;38934;52.690;6.184;2022-12-07T18:07:46;2.92;;;2.08;;
53052;SDS011;38934;52.690;6.184;2022-12-07T18:10:12;2.85;;;2.00;;
53052;SDS011;38934;52.690;6.184;2022-12-07T18:12:38;5.47;;;2.00;;
53052;SDS011;38934;52.690;6.184;2022-12-07T18:15:05;2.55;;;2.03;;
53052;SDS011;38934;52.690;6.184;2022-12-07T18:17:31;2.03;;;1.75;;
53052;SDS011;38934;52.690;6.184;2022-12-07T18:19:57;2.20;;;2.00;;
53052;SDS011;38934;52.690;6.184;2022-12-07T18:22:23;5.88;;;2.10;;
53052;SDS011;38934;52.690;6.184;2022-12-07T18:24:49;6.43;;;2.30;;
53052;SDS011;38934;52.690;6.184;2022-12-07T18:27:15;2.40;;;2.20;;
53052;SDS011;38934;52.690;6.184;2022-12-07T18:29:41;2.88;;;1.90;;
53052;SDS011;38934;52.690;6.184;2022-12-07T18:32:07;2.38;;;2.10;;
53052;SDS011;38934;52.690;6.184;2022-12-07T18:34:33;2.50;;;2.00;;
53052;SDS011;38934;52.690;6.184;2022-12-07T18:36:59;2.85;;;2.13;;
53052;SDS011;38934;52.690;6.184;2022-12-07T18:39:25;4.32;;;2.30;;
53052;SDS011;38934;52.690;6.184;2022-12-07T18:41:51;6.40;;;2.15;;
53052;SDS011;38934;52.690;6.184;2022-12-07T18:44:17;3.33;;;2.38;;
53052;SDS011;38934;52.690;6.184;2022-12-07T18:46:43;4.32;;;2.15;;
53052;SDS011;38934;52.690;6.184;2022-12-07T18:49:11;3.40;;;2.17;;
53052;SDS011;38934;52.690;6.184;2022-12-07T18:51:37;5.13;;;2.30;;
53052;SDS011;38934;52.690;6.184;2022-12-07T18:54:03;2.55;;;2.28;;
53052;SDS011;38934;52.690;6.184;2022-12-07T18:56:29;4.80;;;2.92;;
53052;SDS011;38934;52.690;6.184;2022-12-07T18:58:56;5.57;;;3.10;;
53052;SDS011;38934;52.690;6.184;2022-12-07T19:01:41;6.50;;;3.00;;
53052;SDS011;38934;52.690;6.184;2022-12-07T19:04:08;4.97;;;2.78;;
53052;SDS011;38934;52.690;6.184;2022-12-07T19:06:34;5.05;;;2.50;;
53052;SDS011;38934;52.690;6.184;2022-12-07T19:09:01;5.63;;;2.28;;
53052;SDS011;38934;52.690;6.184;2022-12-07T19:11:28;4.28;;;2.17;;
53052;SDS011;38934;52.690;6.184;2022-12-07T19:14:13;4.57;;;2.17;;
53052;SDS011;38934;52.690;6.184;2022-12-07T19:16:40;3.63;;;2.10;;
53052;SDS011;38934;52.690;6.184;2022-12-07T19:19:06;6.15;;;2.08;;
53052;SDS011;38934;52.690;6.184;2022-12-07T19:21:32;2.92;;;2.10;;
53052;SDS011;38934;52.690;6.184;2022-12-07T19:23:58;4.55;;;2.40;;
53052;SDS011;38934;52.690;6.184;2022-12-07T19:26:24;2.78;;;2.20;;
53052;SDS011;38934;52.690;6.184;2022-12-07T19:28:50;3.67;;;2.55;;
53052;SDS011;38934;52.690;6.184;2022-12-07T19:31:16;4.55;;;2.60;;
53052;SDS011;38934;52.690;6.184;2022-12-07T19:33:42;6.65;;;3.72;;
53052;SDS011;38934;52.690;6.184;2022-12-07T19:36:08;8.95;;;3.25;;
53052;SDS011;38934;52.690;6.184;2022-12-07T19:38:34;7.55;;;3.80;;
53052;SDS011;38934;52.690;6.184;2022-12-07T19:41:07;5.57;;;3.70;;
53052;SDS011;38934;52.690;6.184;2022-12-07T19:43:53;7.97;;;3.10;;
53052;SDS011;38934;52.690;6.184;2022-12-07T19:46:19;6.07;;;3.20;;
53052;SDS011;38934;52.690;6.184;2022-12-07T19:48:45;5.97;;;2.95;;
53052;SDS011;38934;52.690;6.184;2022-12-07T19:51:11;5.80;;;3.20;;
53052;SDS011;38934;52.690;6.184;2022-12-07T19:53:37;3.72;;;2.53;;
53052;SDS011;38934;52.690;6.184;2022-12-07T19:56:03;5.68;;;2.63;;
53052;SDS011;38934;52.690;6.184;2022-12-07T19:58:29;4.38;;;2.20;;
53052;SDS011;38934;52.690;6.184;2022-12-07T20:01:00;5.65;;;2.58;;
53052;SDS011;38934;52.690;6.184;2022-12-07T20:03:26;3.15;;;2.33;;
53052;SDS011;38934;52.690;6.184;2022-12-07T20:05:52;4.88;;;2.00;;
53052;SDS011;38934;52.690;6.184;2022-12-07T20:08:19;4.35;;;2.10;;
53052;SDS011;38934;52.690;6.184;2022-12-07T20:10:45;3.38;;;2.15;;
53052;SDS011;38934;52.690;6.184;2022-12-07T20:13:11;3.60;;;2.47;;
53052;SDS011;38934;52.690;6.184;2022-12-07T20:15:53;8.00;;;3.70;;
53052;SDS011;38934;52.690;6.184;2022-12-07T20:18:19;4.32;;;3.05;;
53052;SDS011;38934;52.690;6.184;2022-12-07T20:20:52;5.13;;;2.72;;
53052;SDS011;38934;52.690;6.184;2022-12-07T20:23:18;4.85;;;2.10;;
53052;SDS011;38934;52.690;6.184;2022-12-07T20:25:44;3.85;;;2.40;;
53052;SDS011;38934;52.690;6.184;2022-12-07T20:28:10;6.78;;;2.70;;
53052;SDS011;38934;52.690;6.184;2022-12-07T20:30:36;6.60;;;2.50;;
53052;SDS011;38934;52.690;6.184;2022-12-07T20:33:02;4.45;;;2.53;;
53052;SDS011;38934;52.690;6.184;2022-12-07T20:35:28;4.47;;;2.65;;
53052;SDS011;38934;52.690;6.184;2022-12-07T20:37:54;4.00;;;2.72;;
53052;SDS011;38934;52.690;6.184;2022-12-07T20:40:20;3.08;;;2.55;;
53052;SDS011;38934;52.690;6.184;2022-12-07T20:42:46;5.90;;;2.67;;
53052;SDS011;38934;52.690;6.184;2022-12-07T20:45:12;6.47;;;2.83;;
53052;SDS011;38934;52.690;6.184;2022-12-07T20:47:38;5.45;;;2.90;;
53052;SDS011;38934;52.690;6.184;2022-12-07T20:50:04;6.63;;;2.67;;
53052;SDS011;38934;52.690;6.184;2022-12-07T20:52:30;5.90;;;2.60;;
53052;SDS011;38934;52.690;6.184;2022-12-07T20:54:56;5.18;;;2.45;;
53052;SDS011;38934;52.690;6.184;2022-12-07T20:57:22;4.68;;;2.47;;
53052;SDS011;38934;52.690;6.184;2022-12-07T20:59:48;5.30;;;2.97;;
53052;SDS011;38934;52.690;6.184;2022-12-07T21:02:14;5.63;;;2.50;;
53052;SDS011;38934;52.690;6.184;2022-12-07T21:04:40;6.75;;;2.80;;
53052;SDS011;38934;52.690;6.184;2022-12-07T21:07:07;8.30;;;2.55;;
53052;SDS011;38934;52.690;6.184;2022-12-07T21:09:33;6.25;;;2.35;;
53052;SDS011;38934;52.690;6.184;2022-12-07T21:11:59;4.47;;;2.42;;
53052;SDS011;38934;52.690;6.184;2022-12-07T21:14:25;7.03;;;3.03;;
53052;SDS011;38934;52.690;6.184;2022-12-07T21:16:51;6.88;;;4.43;;
53052;SDS011;38934;52.690;6.184;2022-12-07T21:19:17;8.52;;;2.55;;
53052;SDS011;38934;52.690;6.184;2022-12-07T21:21:43;4.38;;;2.15;;
53052;SDS011;38934;52.690;6.184;2022-12-07T21:24:09;4.30;;;2.00;;
53052;SDS011;38934;52.690;6.184;2022-12-07T21:26:35;6.20;;;2.08;;
53052;SDS011;38934;52.690;6.184;2022-12-07T21:29:03;6.88;;;1.98;;
53052;SDS011;38934;52.690;6.184;2022-12-07T21:31:29;3.90;;;1.83;;
53052;SDS011;38934;52.690;6.184;2022-12-07T21:33:55;4.72;;;1.90;;
53052;SDS011;38934;52.690;6.184;2022-12-07T21:36:22;6.60;;;2.10;;
53052;SDS011;38934;52.690;6.184;2022-12-07T21:38:49;5.20;;;2.00;;
53052;SDS011;38934;52.690;6.184;2022-12-07T21:41:17;3.80;;;2.05;;
53052;SDS011;38934;52.690;6.184;2022-12-07T21:43:43;3.97;;;1.80;;
53052;SDS011;38934;52.690;6.184;2022-12-07T21:46:10;6.03;;;2.10;;
53052;SDS011;38934;52.690;6.184;2022-12-07T21:48:36;5.00;;;2.00;;
53052;SDS011;38934;52.690;6.184;2022-12-07T21:51:02;4.55;;;1.77;;
53052;SDS011;38934;52.690;6.184;2022-12-07T21:53:29;5.35;;;1.95;;
53052;SDS011;38934;52.690;6.184;2022-12-07T21:55:55;3.78;;;1.90;;
53052;SDS011;38934;52.690;6.184;2022-12-07T21:58:21;4.13;;;1.90;;
53052;SDS011;38934;52.690;6.184;2022-12-07T22:00:47;4.07;;;2.13;;
53052;SDS011;38934;52.690;6.184;2022-12-07T22:03:12;7.90;;;2.05;;
53052;SDS011;38934;52.690;6.184;2022-12-07T22:05:38;2.25;;;1.90;;
53052;SDS011;38934;52.690;6.184;2022-12-07T22:08:04;5.18;;;1.80;;
53052;SDS011;38934;52.690;6.184;2022-12-07T22:10:30;5.72;;;2.53;;
53052;SDS011;38934;52.690;6.184;2022-12-07T22:12:57;6.95;;;2.38;;
53052;SDS011;38934;52.690;6.184;2022-12-07T22:15:23;4.40;;;2.17;;
53052;SDS011;38934;52.690;6.184;2022-12-07T22:17:49;4.82;;;2.22;;
53052;SDS011;38934;52.690;6.184;2022-12-07T22:20:16;5.18;;;2.03;;
53052;SDS011;38934;52.690;6.184;2022-12-07T22:22:42;2.47;;;1.98;;
53052;SDS011;38934;52.690;6.184;2022-12-07T22:25:09;2.22;;;1.83;;
53052;SDS011;38934;52.690;6.184;2022-12-07T22:27:35;4.60;;;2.10;;
53052;SDS011;38934;52.690;6.184;2022-12-07T22:30:02;3.28;;;2.10;;
53052;SDS011;38934;52.690;6.184;2022-12-07T22:32:28;10.43;;;3.97;;
53052;SDS011;38934;52.690;6.184;2022-12-07T22:34:54;10.32;;;2.90;;
53052;SDS011;38934;52.690;6.184;2022-12-07T22:37:20;4.78;;;2.20;;
53052;SDS011;38934;52.690;6.184;2022-12-07T22:39:46;6.30;;;2.10;;
53052;SDS011;38934;52.690;6.184;2022-12-07T22:42:12;4.18;;;2.35;;
53052;SDS011;38934;52.690;6.184;2022-12-07T22:44:38;6.75;;;2.17;;
53052;SDS011;38934;52.690;6.184;2022-12-07T22:47:07;4.65;;;2.30;;
53052;SDS011;38934;52.690;6.184;2022-12-07T22:49:33;4.22;;;2.97;;
53052;SDS011;38934;52.690;6.184;2022-12-07T22:51:59;2.25;;;2.00;;
53052;SDS011;38934;52.690;6.184;2022-12-07T22:54:25;5.53;;;2.03;;
53052;SDS011;38934;52.690;6.184;2022-12-07T22:56:51;5.88;;;2.00;;
53052;SDS011;38934;52.690;6.184;2022-12-07T22:59:17;7.45;;;2.03;;
53052;SDS011;38934;52.690;6.184;2022-12-07T23:01:43;6.47;;;2.40;;
53052;SDS011;38934;52.690;6.184;2022-12-07T23:04:09;3.20;;;2.10;;
53052;SDS011;38934;52.690;6.184;2022-12-07T23:06:35;6.32;;;2.55;;
53052;SDS011;38934;52.690;6.184;2022-12-07T23:09:02;4.00;;;2.30;;
53052;SDS011;38934;52.690;6.184;2022-12-07T23:11:29;6.15;;;2.83;;
53052;SDS011;38934;52.690;6.184;2022-12-07T23:14:16;3.35;;;2.70;;
53052;SDS011;38934;52.690;6.184;2022-12-07T23:16:42;4.38;;;2.50;;
53052;SDS011;38934;52.690;6.184;2022-12-07T23:19:08;5.88;;;3.00;;
53052;SDS011;38934;52.690;6.184;2022-12-07T23:21:34;3.70;;;2.58;;
53052;SDS011;38934;52.690;6.184;2022-12-07T23:24:00;3.47;;;2.63;;
53052;SDS011;38934;52.690;6.184;2022-12-07T23:26:26;4.57;;;2.17;;
53052;SDS011;38934;52.690;6.184;2022-12-07T23:28:52;4.85;;;2.50;;
53052;SDS011;38934;52.690;6.184;2022-12-07T23:31:19;5.13;;;2.47;;
53052;SDS011;38934;52.690;6.184;2022-12-07T23:33:45;3.63;;;2.20;;
53052;SDS011;38934;52.690;6.184;2022-12-07T23:36:18;4.60;;;2.17;;
53052;SDS011;38934;52.690;6.184;2022-12-07T23:38:45;4.43;;;2.28;;
53052;SDS011;38934;52.690;6.184;2022-12-07T23:41:14;3.15;;;2.40;;
53052;SDS011;38934;52.690;6.184;2022-12-07T23:43:41;3.63;;;2.50;;
53052;SDS011;38934;52.690;6.184;2022-12-07T23:46:08;7.00;;;2.25;;
53052;SDS011;38934;52.690;6.184;2022-12-07T23:48:34;3.20;;;2.13;;
53052;SDS011;38934;52.690;6.184;2022-12-07T23:51:01;4.68;;;2.30;;
53052;SDS011;38934;52.690;6.184;2022-12-07T23:53:27;7.32;;;2.40;;
53052;SDS011;38934;52.690;6.184;2022-12-07T23:55:53;3.53;;;2.08;;
53052;SDS011;38934;52.690;6.184;2022-12-07T23:58:19;2.38;;;2.17;;
